createdAt,value
2019-04-04T00:01:32.988Z,14.40
2019-04-04T00:04:13.037Z,14.30
2019-04-04T00:06:58.670Z,14.30
2019-04-04T00:09:39.613Z,14.20
2019-04-04T00:12:21.042Z,14.20
2019-04-04T00:14:59.588Z,14.10
2019-04-04T00:17:38.209Z,14.10
2019-04-04T00:20:16.244Z,14.00
2019-04-04T00:22:56.216Z,14.00
2019-04-04T00:25:42.241Z,13.90
2019-04-04T00:28:28.999Z,13.90
2019-04-04T00:31:14.226Z,13.80
2019-04-04T00:33:50.052Z,13.80
2019-04-04T00:36:37.065Z,13.80
2019-04-04T00:39:22.274Z,13.70
2019-04-04T00:42:05.442Z,13.70
2019-04-04T00:44:58.165Z,13.70
2019-04-04T00:47:35.696Z,13.60
2019-04-04T00:50:17.984Z,13.60
2019-04-04T00:53:04.042Z,13.60
2019-04-04T00:55:39.945Z,13.60
2019-04-04T00:58:16.099Z,13.50
2019-04-04T01:01:02.650Z,13.50
2019-04-04T01:03:40.448Z,13.50
2019-04-04T01:06:16.315Z,13.50
2019-04-04T01:08:51.978Z,13.40
2019-04-04T01:11:34.250Z,13.40
2019-04-04T01:14:16.834Z,13.40
2019-04-04T01:16:57.727Z,13.40
2019-04-04T01:19:37.881Z,13.40
2019-04-04T01:22:20.930Z,13.40
2019-04-04T01:24:59.073Z,13.40
2019-04-04T01:27:38.717Z,13.30
2019-04-04T01:30:18.978Z,13.30
2019-04-04T01:33:00.064Z,13.30
2019-04-04T01:35:41.150Z,13.30
2019-04-04T01:38:17.018Z,13.30
2019-04-04T01:40:58.574Z,13.30
2019-04-04T01:43:40.036Z,13.20
2019-04-04T01:46:18.856Z,13.20
2019-04-04T01:48:55.021Z,13.20
2019-04-04T01:51:31.073Z,13.20
2019-04-04T01:54:08.466Z,13.20
2019-04-04T01:56:44.455Z,13.10
2019-04-04T01:59:22.405Z,13.10
2019-04-04T02:02:09.759Z,13.10
2019-04-04T02:04:45.495Z,13.10
2019-04-04T02:07:23.867Z,13.10
2019-04-04T02:09:59.601Z,13.00
2019-04-04T02:12:38.508Z,13.00
2019-04-04T02:15:16.007Z,13.00
2019-04-04T02:17:54.642Z,13.00
2019-04-04T02:20:32.045Z,12.90
2019-04-04T02:23:07.965Z,12.90
2019-04-04T02:25:43.652Z,12.90
2019-04-04T02:28:23.647Z,12.90
2019-04-04T02:31:06.482Z,12.80
2019-04-04T02:33:42.302Z,12.90
2019-04-04T02:36:20.939Z,12.80
2019-04-04T02:39:16.747Z,12.80
2019-04-04T02:41:53.107Z,12.80
2019-04-04T02:44:33.845Z,12.70
2019-04-04T02:47:18.321Z,12.70
2019-04-04T02:50:00.627Z,12.70
2019-04-04T02:52:35.578Z,12.70
2019-04-04T02:55:11.878Z,12.70
2019-04-04T02:57:51.483Z,12.60
2019-04-04T03:00:30.661Z,12.60
2019-04-04T03:03:09.151Z,12.60
2019-04-04T03:05:44.524Z,12.60
2019-04-04T03:08:26.997Z,12.50
2019-04-04T03:11:05.877Z,12.50
2019-04-04T03:13:42.094Z,12.50
2019-04-04T03:16:21.047Z,12.50
2019-04-04T03:18:58.576Z,12.50
2019-04-04T03:21:37.161Z,12.50
2019-04-04T03:24:13.287Z,12.50
2019-04-04T03:26:52.669Z,12.50
2019-04-04T03:29:37.397Z,12.40
2019-04-04T03:32:24.609Z,12.40
2019-04-04T03:35:00.869Z,12.40
2019-04-04T03:37:41.871Z,12.40
2019-04-04T03:40:25.658Z,12.40
2019-04-04T03:43:02.060Z,12.40
2019-04-04T03:45:39.681Z,12.40
2019-04-04T03:48:17.620Z,12.30
2019-04-04T03:50:56.699Z,12.30
2019-04-04T03:53:39.122Z,12.30
2019-04-04T03:56:15.234Z,12.30
2019-04-04T03:58:51.238Z,12.30
2019-04-04T04:01:28.389Z,12.30
2019-04-04T04:04:12.487Z,12.30
2019-04-04T04:06:54.700Z,12.20
2019-04-04T04:09:36.981Z,12.20
2019-04-04T04:12:15.965Z,12.20
2019-04-04T04:14:55.128Z,12.20
2019-04-04T04:17:46.539Z,12.10
2019-04-04T04:20:22.266Z,12.20
2019-04-04T04:23:00.934Z,12.20
2019-04-04T04:25:36.941Z,12.20
2019-04-04T04:28:19.741Z,12.20
2019-04-04T04:30:54.981Z,12.10
2019-04-04T04:33:30.810Z,12.10
2019-04-04T04:36:17.657Z,12.10
2019-04-04T04:38:58.800Z,12.10
2019-04-04T04:41:30.957Z,12.10
2019-04-04T04:44:08.940Z,12.10
2019-04-04T04:47:22.626Z,12.10
2019-04-04T04:49:45.632Z,12.10
2019-04-04T04:52:41.664Z,12.10
2019-04-04T04:55:38.303Z,12.20
2019-04-04T04:58:15.372Z,12.20
2019-04-04T05:01:11.549Z,12.10
2019-04-04T05:03:54.219Z,12.10
2019-04-04T05:06:39.363Z,12.20
2019-04-04T05:09:27.335Z,12.20
2019-04-04T05:12:27.275Z,12.20
2019-04-04T05:15:12.913Z,12.20
2019-04-04T05:18:12.049Z,12.20
2019-04-04T05:21:24.503Z,12.30
2019-04-04T05:23:54.532Z,12.30
2019-04-04T05:26:32.244Z,12.30
2019-04-04T05:29:13.194Z,12.40
2019-04-04T05:31:50.608Z,12.40
2019-04-04T05:34:31.047Z,12.50
2019-04-04T05:37:16.942Z,12.50
2019-04-04T05:40:01.648Z,12.60
2019-04-04T05:42:43.364Z,12.60
2019-04-04T05:45:23.931Z,12.60
2019-04-04T05:48:05.073Z,12.70
2019-04-04T05:50:43.647Z,12.70
2019-04-04T05:53:21.568Z,12.70
2019-04-04T05:56:00.762Z,12.70
2019-04-04T05:58:36.950Z,12.70
2019-04-04T06:01:15.762Z,12.80
2019-04-04T06:03:53.717Z,12.80
2019-04-04T06:06:36.701Z,12.80
2019-04-04T06:09:17.220Z,12.90
2019-04-04T06:12:57.415Z,12.90
2019-04-04T06:15:38.510Z,13.00
2019-04-04T06:18:14.706Z,13.10
2019-04-04T06:20:57.530Z,13.10
2019-04-04T06:25:53.438Z,13.20
2019-04-04T06:26:22.974Z,13.30
2019-04-04T06:28:58.440Z,13.40
2019-04-04T06:31:41.981Z,13.50
2019-04-04T06:34:17.717Z,13.70
2019-04-04T06:36:56.114Z,13.80
2019-04-04T06:39:31.796Z,14.00
2019-04-04T06:42:07.286Z,14.10
2019-04-04T06:44:48.394Z,14.30
2019-04-04T06:47:25.428Z,14.40
2019-04-04T06:50:01.272Z,14.60
2019-04-04T06:52:37.066Z,14.80
2019-04-04T06:55:13.074Z,15.00
2019-04-04T06:57:51.721Z,15.10
2019-04-04T07:00:36.668Z,15.30
2019-04-04T07:03:10.676Z,15.50
2019-04-04T07:05:49.820Z,15.70
2019-04-04T07:08:25.645Z,16.00
2019-04-04T07:11:08.211Z,16.20
2019-04-04T07:13:43.109Z,16.40
2019-04-04T07:16:20.090Z,16.60
2019-04-04T07:18:58.848Z,16.80
2019-04-04T07:21:34.793Z,16.90
2019-04-04T07:24:13.009Z,17.10
2019-04-04T07:26:48.895Z,17.40
2019-04-04T07:29:25.393Z,17.60
2019-04-04T07:32:02.130Z,17.80
2019-04-04T07:34:38.226Z,18.10
2019-04-04T07:37:15.898Z,18.30
2019-04-04T07:39:52.967Z,18.60
2019-04-04T07:42:32.186Z,18.80
2019-04-04T07:45:14.147Z,19.10
2019-04-04T07:47:52.149Z,19.40
2019-04-04T07:50:27.918Z,19.70
2019-04-04T07:53:05.033Z,19.90
2019-04-04T07:55:42.224Z,20.20
2019-04-04T07:58:21.106Z,20.30
2019-04-04T08:01:02.865Z,20.50
2019-04-04T08:03:38.729Z,20.60
2019-04-04T08:06:24.327Z,20.70
2019-04-04T08:09:06.694Z,20.70
2019-04-04T08:11:42.493Z,20.80
2019-04-04T08:14:28.772Z,21.00
2019-04-04T08:17:09.958Z,21.10
2019-04-04T08:19:59.064Z,21.20
2019-04-04T08:22:31.923Z,21.40
2019-04-04T08:25:08.350Z,21.50
2019-04-04T08:27:44.588Z,21.60
2019-04-04T08:30:25.424Z,21.80
2019-04-04T08:33:02.891Z,22.00
2019-04-04T08:35:40.718Z,22.10
2019-04-04T08:38:16.731Z,22.30
2019-04-04T08:40:52.537Z,22.40
2019-04-04T08:43:31.234Z,22.60
2019-04-04T08:46:09.954Z,22.70
2019-04-04T08:48:46.824Z,22.90
2019-04-04T08:51:22.212Z,23.00
2019-04-04T08:54:00.737Z,23.10
2019-04-04T08:56:39.090Z,23.20
2019-04-04T08:59:14.852Z,23.40
2019-04-04T09:01:53.307Z,23.50
2019-04-04T09:04:31.526Z,23.60
2019-04-04T09:07:09.839Z,23.70
2019-04-04T09:09:45.645Z,23.80
2019-04-04T09:12:24.248Z,23.90
2019-04-04T09:14:59.996Z,24.00
2019-04-04T09:17:37.106Z,24.10
2019-04-04T09:20:15.704Z,24.20
2019-04-04T09:22:54.518Z,24.30
2019-04-04T09:25:31.937Z,24.50
2019-04-04T09:28:20.806Z,24.60
2019-04-04T09:31:15.097Z,24.60
2019-04-04T09:33:50.412Z,24.70
2019-04-04T09:36:25.652Z,24.70
2019-04-04T09:39:00.913Z,24.70
2019-04-04T09:41:36.218Z,24.70
2019-04-04T09:44:11.561Z,24.70
2019-04-04T09:46:46.872Z,24.60
2019-04-04T09:49:22.248Z,24.70
2019-04-04T09:51:57.538Z,24.70
2019-04-04T09:54:32.906Z,24.70
2019-04-04T09:57:08.245Z,24.80
2019-04-04T09:59:43.804Z,24.90
2019-04-04T10:02:25.834Z,25.00
2019-04-04T10:04:56.513Z,25.00
2019-04-04T10:07:33.192Z,25.10
2019-04-04T10:10:10.360Z,25.20
2019-04-04T10:12:48.731Z,25.30
2019-04-04T10:15:29.278Z,25.30
2019-04-04T10:18:03.790Z,25.40
2019-04-04T10:20:39.002Z,25.40
2019-04-04T10:23:14.354Z,25.40
2019-04-04T10:25:49.660Z,25.50
2019-04-04T10:28:24.943Z,25.50
2019-04-04T10:31:00.217Z,25.60
2019-04-04T10:33:44.575Z,25.70
2019-04-04T10:36:26.628Z,25.70
2019-04-04T10:39:51.315Z,25.80
2019-04-04T10:42:36.538Z,25.80
2019-04-04T10:45:12.213Z,25.80
2019-04-04T10:47:53.154Z,25.80
2019-04-04T10:50:32.904Z,25.80
2019-04-04T10:53:28.996Z,25.90
2019-04-04T10:56:18.298Z,26.00
2019-04-04T10:59:06.907Z,26.00
2019-04-04T11:02:01.813Z,26.10
2019-04-04T11:04:44.352Z,26.20
2019-04-04T11:07:27.786Z,26.20
2019-04-04T11:10:09.012Z,26.30
2019-04-04T11:12:55.886Z,26.40
2019-04-04T11:15:33.388Z,26.50
2019-04-04T11:18:21.374Z,26.60
2019-04-04T11:21:03.154Z,26.60
2019-04-04T11:23:40.077Z,26.70
2019-04-04T11:26:17.302Z,26.70
2019-04-04T11:28:56.206Z,26.70
2019-04-04T11:31:40.201Z,26.70
2019-04-04T11:34:21.685Z,26.70
2019-04-04T11:36:59.505Z,26.70
2019-04-04T11:39:36.508Z,26.70
2019-04-04T11:42:16.636Z,26.70
2019-04-04T11:44:55.557Z,26.80
2019-04-04T11:47:34.126Z,26.90
2019-04-04T11:50:13.419Z,27.00
2019-04-04T11:52:52.598Z,27.00
2019-04-04T11:55:30.411Z,27.10
2019-04-04T11:58:09.986Z,27.10
2019-04-04T12:00:55.278Z,27.20
2019-04-04T12:03:38.490Z,27.30
2019-04-04T12:06:14.919Z,27.40
2019-04-04T12:08:58.240Z,27.40
2019-04-04T12:11:45.364Z,27.50
2019-04-04T12:14:42.703Z,27.60
2019-04-04T12:17:21.392Z,27.60
2019-04-04T12:20:00.555Z,27.70
2019-04-04T12:22:42.059Z,27.70
2019-04-04T12:25:22.629Z,27.80
2019-04-04T12:28:10.461Z,27.80
2019-04-04T12:34:02.074Z,27.80
2019-04-04T12:36:49.333Z,27.80
2019-04-04T12:39:29.708Z,27.80
2019-04-04T12:42:06.444Z,27.80
2019-04-04T12:44:42.974Z,27.80
2019-04-04T12:47:19.532Z,27.80
2019-04-04T12:50:30.409Z,27.80
2019-04-04T12:53:22.174Z,27.80
2019-04-04T12:59:18.341Z,27.90
2019-04-04T13:01:54.196Z,27.90
2019-04-04T13:04:33.372Z,28.00
2019-04-04T13:07:18.123Z,28.00
2019-04-04T13:09:57.697Z,28.00
2019-04-04T13:12:40.937Z,28.00
2019-04-04T13:15:45.502Z,28.00
2019-04-04T13:18:17.315Z,27.90
2019-04-04T13:20:55.613Z,27.90
2019-04-04T13:23:37.746Z,28.00
2019-04-04T13:26:16.241Z,28.00
2019-04-04T13:29:01.166Z,28.00
2019-04-04T13:32:00.587Z,28.10
2019-04-04T13:35:10.191Z,28.10
2019-04-04T13:37:53.777Z,28.20
2019-04-04T13:40:45.195Z,28.30
2019-04-04T13:43:33.384Z,28.30
2019-04-04T13:46:29.377Z,28.40
2019-04-04T13:49:30.748Z,28.40
2019-04-04T13:52:11.855Z,28.40
2019-04-04T13:54:56.425Z,28.40
2019-04-04T13:57:45.435Z,28.40
2019-04-04T14:00:46.360Z,28.40
2019-04-04T14:03:43.158Z,28.40
2019-04-04T14:06:32.135Z,28.40
2019-04-04T14:09:12.516Z,28.40
2019-04-04T14:11:59.480Z,28.40
2019-04-04T14:14:34.928Z,28.40
2019-04-04T14:17:17.251Z,28.40
2019-04-04T14:20:17.653Z,28.40
2019-04-04T14:23:00.623Z,28.40
2019-04-04T14:25:42.443Z,28.40
2019-04-04T14:28:29.308Z,28.30
2019-04-04T14:31:19.239Z,28.30
2019-04-04T14:34:23.327Z,28.20
2019-04-04T14:37:08.181Z,28.20
2019-04-04T14:39:47.741Z,28.20
2019-04-04T14:42:27.550Z,28.20
2019-04-04T14:45:06.574Z,28.20
2019-04-04T14:47:50.708Z,28.20
2019-04-04T14:50:28.249Z,28.20
2019-04-04T14:53:08.648Z,28.20
2019-04-04T14:55:51.391Z,28.10
2019-04-04T14:58:33.631Z,28.10
2019-04-04T15:01:12.246Z,28.10
2019-04-04T15:03:54.761Z,28.10
2019-04-04T15:09:44.763Z,28.00
2019-04-04T15:12:26.632Z,28.00
2019-04-04T15:15:09.719Z,28.00
2019-04-04T15:18:01.248Z,27.90
2019-04-04T15:20:37.375Z,27.90
2019-04-04T15:23:16.369Z,28.00
2019-04-04T15:26:10.724Z,27.90
2019-04-04T15:28:53.650Z,27.90
2019-04-04T15:36:11.414Z,27.90
2019-04-04T16:11:24.264Z,27.80
2019-04-04T16:14:48.131Z,27.50
2019-04-04T16:18:03.359Z,27.20
2019-04-04T16:24:34.212Z,26.70
2019-04-04T16:27:32.544Z,26.50
2019-04-04T16:31:22.778Z,26.20
2019-04-04T16:51:00.111Z,25.30
2019-04-04T17:08:48.641Z,25.40
2019-04-04T17:11:36.892Z,25.10
2019-04-04T17:14:19.616Z,25.10
2019-04-04T17:17:13.097Z,25.10
2019-04-04T17:19:52.492Z,25.00
2019-04-04T17:22:32.946Z,24.90
2019-04-04T17:25:11.424Z,24.70
2019-04-04T17:28:02.298Z,24.60
2019-04-04T17:30:55.478Z,24.50
2019-04-04T17:33:44.672Z,24.40
2019-04-04T17:36:24.918Z,24.30
2019-04-04T17:39:00.588Z,24.30
2019-04-04T17:41:42.497Z,24.20
2019-04-04T17:44:44.308Z,24.10
2019-04-04T17:47:25.356Z,24.10
2019-04-04T17:50:01.067Z,24.00
2019-04-04T17:52:41.738Z,23.90
2019-04-04T17:55:26.408Z,23.80
2019-04-04T17:58:12.121Z,23.80
2019-04-04T18:00:47.490Z,23.70
2019-04-04T18:03:34.390Z,23.60
2019-04-04T18:06:49.552Z,23.50
2019-04-04T18:09:32.736Z,23.40
2019-04-04T18:12:08.208Z,23.30
2019-04-04T18:14:45.563Z,23.30
2019-04-04T18:17:21.107Z,23.20
2019-04-04T18:19:59.706Z,23.00
2019-04-04T18:24:10.832Z,22.90
2019-04-04T18:27:24.469Z,22.70
2019-04-04T18:29:36.322Z,22.50
2019-04-04T18:32:16.639Z,22.30
2019-04-04T18:38:06.914Z,22.00
2019-04-04T18:40:42.414Z,21.80
2019-04-04T18:43:20.890Z,21.60
2019-04-04T18:45:59.038Z,21.40
2019-04-04T18:48:39.406Z,21.20
2019-04-04T18:51:32.798Z,21.00
2019-04-04T18:54:15.521Z,20.80
2019-04-04T18:56:54.077Z,20.50
2019-04-04T18:59:31.503Z,20.20
2019-04-04T19:02:12.355Z,20.10
2019-04-04T19:04:47.892Z,19.90
2019-04-04T19:07:39.580Z,19.70
2019-04-04T19:10:51.470Z,19.70
2019-04-04T19:17:49.916Z,19.40
2019-04-04T19:21:51.225Z,19.30
2019-04-04T19:24:07.248Z,19.20
2019-04-04T19:26:42.805Z,19.00
2019-04-04T19:30:32.038Z,18.90
2019-04-04T19:33:31.538Z,18.70
2019-04-04T19:36:23.158Z,18.60
2019-04-04T19:39:42.782Z,18.40
2019-04-04T19:42:13.832Z,18.30
2019-04-04T19:45:16.617Z,18.20
2019-04-04T19:48:29.461Z,18.10
2019-04-04T19:51:33.530Z,18.00
2019-04-04T19:54:27.111Z,17.80
2019-04-04T20:01:17.037Z,17.60
2019-04-04T20:03:55.730Z,17.50
2019-04-04T20:06:49.635Z,17.40
2019-04-04T20:09:58.874Z,17.30
2019-04-04T20:13:30.301Z,17.20
2019-04-04T20:16:39.515Z,17.10
2019-04-04T20:20:16.763Z,17.10
2019-04-04T20:23:12.642Z,17.10
2019-04-04T20:26:20.903Z,17.00
2019-04-04T20:29:09.126Z,16.90
2019-04-04T20:31:58.994Z,16.90
2019-04-04T20:35:35.593Z,16.90
2019-04-04T20:38:21.964Z,16.90
2019-04-04T20:41:16.768Z,16.80
2019-04-04T20:44:00.700Z,16.80
2019-04-04T20:46:45.958Z,16.80
2019-04-04T20:49:49.345Z,16.70
2019-04-04T20:52:30.625Z,16.60
2019-04-04T20:55:11.038Z,16.60
2019-04-04T20:57:48.339Z,16.60
2019-04-04T21:00:26.275Z,16.50
2019-04-04T21:03:09.355Z,16.40
2019-04-04T21:06:01.075Z,16.40
2019-04-04T21:08:29.917Z,16.40
2019-04-04T21:11:12.365Z,16.40
2019-04-04T21:13:56.019Z,16.40
2019-04-04T21:16:24.746Z,16.40
2019-04-04T21:19:00.094Z,16.40
2019-04-04T21:21:43.734Z,16.40
2019-04-04T21:24:24.298Z,16.40
2019-04-04T21:27:07.062Z,16.40
2019-04-04T21:29:46.587Z,16.40
2019-04-04T21:32:27.812Z,16.40
2019-04-04T21:35:08.075Z,16.50
2019-04-04T21:37:43.529Z,16.50
2019-04-04T21:40:22.013Z,16.50
2019-04-04T21:43:07.363Z,16.50
2019-04-04T21:45:47.639Z,16.50
2019-04-04T21:48:29.350Z,16.40
2019-04-04T21:51:10.325Z,16.40
2019-04-04T21:53:50.933Z,16.40
2019-04-04T21:56:26.163Z,16.30
2019-04-04T21:59:10.084Z,16.30
2019-04-04T22:01:48.998Z,16.30
2019-04-04T22:04:29.566Z,16.20
2019-04-04T22:07:11.459Z,16.20
2019-04-04T22:09:46.997Z,16.10
2019-04-04T22:12:22.437Z,16.10
2019-04-04T22:15:01.010Z,16.20
2019-04-04T22:17:44.005Z,16.20
2019-04-04T22:20:19.343Z,16.20
2019-04-04T22:22:56.330Z,16.20
2019-04-04T22:25:34.972Z,16.20
2019-04-04T22:28:10.486Z,16.20
2019-04-04T22:30:54.813Z,16.20
2019-04-04T22:33:31.282Z,16.20
2019-04-04T22:36:06.860Z,16.20
2019-04-04T22:38:45.426Z,16.20
2019-04-04T22:41:21.964Z,16.20
2019-04-04T22:44:03.460Z,16.20
2019-04-04T22:46:40.211Z,16.20
2019-04-04T22:49:15.907Z,16.30
2019-04-04T22:51:51.455Z,16.30
2019-04-04T22:54:32.314Z,16.30
2019-04-04T22:57:11.890Z,16.20
2019-04-04T22:59:50.113Z,16.20
2019-04-04T23:02:28.556Z,16.30
2019-04-04T23:05:07.596Z,16.30
2019-04-04T23:07:46.089Z,16.30
2019-04-04T23:10:30.893Z,16.20
2019-04-04T23:13:06.453Z,16.20
2019-04-04T23:15:56.307Z,16.20
2019-04-04T23:18:43.361Z,16.20
2019-04-04T23:21:20.931Z,16.20
2019-04-04T23:24:08.449Z,16.20
2019-04-04T23:26:43.944Z,16.20
2019-04-04T23:29:20.904Z,16.10
2019-04-04T23:32:04.575Z,16.10
2019-04-04T23:34:41.813Z,16.10
2019-04-04T23:37:29.424Z,16.00
2019-04-04T23:40:08.892Z,16.00
2019-04-04T23:42:48.910Z,16.00
2019-04-04T23:45:27.319Z,15.90
2019-04-04T23:48:11.166Z,15.90
2019-04-04T23:50:46.832Z,15.90
2019-04-04T23:53:24.312Z,15.90
2019-04-04T23:56:02.918Z,15.80
2019-04-04T23:58:45.653Z,15.80
